Time;durP1;ratioP1;P1;durP2;ratioP2;P2;SDS_P1;SDS_P2;PMS_P1;PMS_P2;Temp;Humidity;BMP_temperature;BMP_pressure;BME280_temperature;BME280_humidity;BME280_pressure;Samples;Min_cycle;Max_cycle;Signal;HPM_P1;HPM_P2
2022/10/10 00:05:43;;;;;;;5.57;1.67;;;;;;;9.68;93.92;101478.81;20954967;28;20557;-64
2022/10/10 00:16:05;;;;;;;;;;;;;;;9.83;92.45;101468.47;20947418;28;20501;-64
2022/10/10 00:26:27;;;;;;;2.03;1.30;;;;;;;9.69;93.22;101476.13;20951553;28;19921;-64
2022/10/10 00:36:48;;;;;;;6.50;1.27;;;;;;;9.67;92.90;101449.34;20956536;28;20048;-64
2022/10/10 00:47:11;;;;;;;2.58;1.40;;;;;;;9.65;92.77;101438.19;20949671;28;20041;-63
2022/10/10 00:57:32;;;;;;;6.15;1.20;;;;;;;9.59;93.63;101432.44;20952535;28;20608;-64
2022/10/10 01:07:54;;;;;;;4.10;1.10;;;;;;;9.61;93.01;101420.16;20946272;28;20053;-64
2022/10/10 01:18:52;;;;;;;4.50;1.40;;;;;;;9.62;93.05;101411.44;20943430;28;20478;-63
2022/10/10 01:29:25;;;;;;;3.15;1.25;;;;;;;9.44;93.08;101399.38;20966192;28;20044;-64
2022/10/10 01:40:10;;;;;;;3.20;1.27;;;;;;;9.57;92.82;101384.84;20954216;28;20048;-65
2022/10/10 01:50:48;;;;;;;3.55;1.40;;;;;;;9.59;92.52;101375.19;20967044;28;20118;-64
2022/10/10 02:01:26;;;;;;;3.67;1.30;;;;;;;9.55;93.72;101356.25;20956946;28;20378;-64
2022/10/10 02:11:48;;;;;;;4.65;1.77;;;;;;;9.59;92.14;101354.38;20960820;28;20165;-64
2022/10/10 02:22:11;;;;;;;3.17;1.30;;;;;;;9.48;92.89;101346.25;20955304;28;20044;-64
2022/10/10 02:32:46;;;;;;;6.28;1.50;;;;;;;9.46;92.59;101337.69;20964453;28;20462;-64
2022/10/10 02:43:11;;;;;;;3.17;1.15;;;;;;;9.43;92.63;101321.38;20969124;28;20512;-64
2022/10/10 02:53:35;;;;;;;4.82;1.33;;;;;;;9.40;93.08;101312.00;20958869;28;20036;-64
2022/10/10 03:03:56;;;;;;;3.38;1.40;;;;;;;9.33;92.99;101305.41;20967012;28;20045;-62
2022/10/10 03:14:18;;;;;;;6.97;1.23;;;;;;;9.33;92.35;101292.41;20961811;28;20105;-64
2022/10/10 03:24:39;;;;;;;5.33;1.30;;;;;;;9.28;93.58;101286.63;20951718;28;20060;-63
2022/10/10 03:35:01;;;;;;;3.60;1.20;;;;;;;9.26;93.03;101283.25;20953865;28;20161;-64
2022/10/10 03:45:23;;;;;;;5.40;2.03;;;;;;;9.20;92.87;101280.94;20957607;28;20037;-64
2022/10/10 03:55:44;;;;;;;;;;;;;;;9.15;92.96;101275.16;20947077;28;20036;-64
2022/10/10 04:06:06;;;;;;;4.20;1.40;;;;;;;8.98;93.68;101272.59;20950052;28;19920;-64
2022/10/10 04:16:28;;;;;;;;;;;;;;;9.01;93.87;101255.97;20951913;28;20515;-63
2022/10/10 04:26:49;;;;;;;4.17;1.70;;;;;;;8.98;94.12;101248.34;20948072;28;19924;-63
2022/10/10 04:37:11;;;;;;;2.63;1.60;;;;;;;8.96;94.69;101243.22;20944204;28;20045;-64
2022/10/10 04:47:33;;;;;;;;;;;;;;;9.00;93.98;101236.94;20933136;28;20527;-64
2022/10/10 04:57:54;;;;;;;7.07;1.43;;;;;;;9.03;94.73;101233.34;20944472;28;19990;-64
2022/10/10 05:08:17;;;;;;;2.83;1.50;;;;;;;8.93;93.88;101226.94;20943967;28;20616;-64
2022/10/10 05:18:38;;;;;;;3.50;1.70;;;;;;;9.04;94.79;101225.44;20947899;28;20130;-64
2022/10/10 05:29:00;;;;;;;5.53;1.77;;;;;;;9.01;94.54;101222.19;20946637;28;20053;-64
2022/10/10 05:39:22;;;;;;;;;;;;;;;9.02;94.12;101205.66;20968501;28;20079;-63
2022/10/10 05:49:43;;;;;;;4.70;1.47;;;;;;;8.97;94.28;101198.09;20959454;28;19931;-64
2022/10/10 06:00:05;;;;;;;13.63;2.50;;;;;;;9.02;94.61;101190.06;20963175;28;20044;-64
2022/10/10 06:10:27;;;;;;;;;;;;;;;9.08;93.91;101190.56;20960962;28;20124;-63
2022/10/10 06:20:48;;;;;;;4.43;1.93;;;;;;;9.08;94.00;101190.56;20958819;28;19931;-63
2022/10/10 06:31:11;;;;;;;4.73;2.20;;;;;;;9.07;93.92;101181.09;20942251;28;20044;-63
2022/10/10 06:41:33;;;;;;;6.32;2.53;;;;;;;9.18;94.05;101186.56;20980802;28;20119;-63
2022/10/10 06:51:54;;;;;;;4.87;2.40;;;;;;;9.44;93.83;101183.44;20961235;28;20526;-64
2022/10/10 07:02:16;;;;;;;7.90;2.47;;;;;;;9.66;92.50;101181.31;20955313;28;20091;-63
2022/10/10 07:12:40;;;;;;;5.07;2.20;;;;;;;9.77;91.89;101179.81;20951682;28;20393;-64
2022/10/10 07:23:11;;;;;;;3.88;2.35;;;;;;;9.94;91.63;101174.50;20945952;28;20517;-63
2022/10/10 07:33:35;;;;;;;6.00;2.33;;;;;;;10.22;90.41;101179.00;20951615;28;20448;-63
2022/10/10 07:43:56;;;;;;;5.03;2.45;;;;;;;10.43;90.60;101177.75;20974694;28;20049;-61
2022/10/10 07:54:18;;;;;;;8.07;2.20;;;;;;;10.59;90.12;101179.38;20955931;28;20037;-62
2022/10/10 08:04:39;;;;;;;3.63;2.70;;;;;;;10.83;90.14;101180.53;20955982;28;20099;-64
2022/10/10 08:15:01;;;;;;;3.60;2.47;;;;;;;11.05;90.49;101184.38;20952747;28;20447;-62
2022/10/10 08:25:23;;;;;;;4.35;2.60;;;;;;;11.35;90.21;101177.28;20956870;28;20528;-63
2022/10/10 08:35:44;;;;;;;5.93;2.60;;;;;;;11.71;90.06;101169.75;20949567;28;20048;-63
2022/10/10 08:46:17;;;;;;;8.95;2.70;;;;;;;12.05;88.28;101169.28;20955287;28;20544;-63
2022/10/10 08:56:40;;;;;;;11.60;3.00;;;;;;;12.40;88.02;101168.63;20952360;28;20044;-64
2022/10/10 09:07:17;;;;;;;6.15;3.05;;;;;;;12.99;84.57;101160.22;20951216;28;20052;-63
2022/10/10 09:17:50;;;;;;;4.63;2.83;;;;;;;13.03;84.86;101152.03;20967311;28;20048;-63
2022/10/10 09:28:23;;;;;;;4.97;3.05;;;;;;;13.13;86.11;101162.72;20943699;28;20426;-63
2022/10/10 09:39:11;;;;;;;6.47;3.33;;;;;;;13.62;83.34;101156.53;20954677;28;20041;-63
2022/10/10 09:49:33;;;;;;;6.38;3.03;;;;;;;13.56;84.08;101152.56;20955745;28;20362;-63
2022/10/10 09:59:55;;;;;;;6.78;3.92;;;;;;;13.69;84.37;101147.25;20950417;28;20041;-64
2022/10/10 10:10:25;;;;;;;8.18;3.17;;;;;;;14.06;83.90;101144.47;20944727;28;20037;-62
2022/10/10 10:20:50;;;;;;;7.18;3.22;;;;;;;14.02;84.95;101134.31;20949875;28;20082;-63
2022/10/10 10:31:36;;;;;;;7.50;3.10;;;;;;;14.96;80.52;101146.28;20968477;28;20048;-64
2022/10/10 10:42:20;;;;;;;5.30;2.88;;;;;;;15.15;80.23;101157.00;20942582;28;20807;-64
2022/10/10 10:52:50;;;;;;;5.30;3.30;;;;;;;15.35;80.03;101156.31;20951976;28;20447;-64
2022/10/10 11:03:32;;;;;;;8.77;3.42;;;;;;;15.78;77.76;101158.03;20978434;28;20138;-64
2022/10/10 11:14:27;;;;;;;6.57;3.20;;;;;;;15.69;78.62;101152.69;20962072;28;20108;-64
2022/10/10 11:24:52;;;;;;;8.60;3.13;;;;;;;16.22;73.56;101157.03;20953240;28;20087;-64
2022/10/10 11:35:19;;;;;;;8.32;3.33;;;;;;;16.59;72.61;101145.97;20954304;28;20481;-64
2022/10/10 11:45:47;;;;;;;5.47;2.65;;;;;;;16.47;73.34;101153.09;20960701;28;20048;-64
2022/10/10 11:56:31;;;;;;;9.27;3.15;;;;;;;16.48;73.77;101154.75;20974989;28;20069;-62
2022/10/10 12:07:03;;;;;;;7.22;2.65;;;;;;;16.82;70.92;101153.59;20972348;28;20048;-61
2022/10/10 12:17:31;;;;;;;8.27;2.80;;;;;;;16.91;71.73;101149.34;20962759;28;20471;-64
2022/10/10 12:28:04;;;;;;;4.43;2.45;;;;;;;16.77;71.79;101161.03;20971192;28;20041;-65
2022/10/10 12:38:29;;;;;;;6.85;2.70;;;;;;;16.72;73.30;101162.41;20966378;28;20048;-64
2022/10/10 12:49:12;;;;;;;8.55;3.40;;;;;;;16.72;73.29;101168.50;20965520;28;20090;-64
2022/10/10 12:59:35;;;;;;;4.65;2.33;;;;;;;16.79;70.98;101159.13;20942106;28;20358;-62
2022/10/10 13:10:06;;;;;;;8.32;2.13;;;;;;;16.78;72.07;101146.91;20969830;28;20485;-63
2022/10/10 13:20:33;;;;;;;7.85;2.10;;;;;;;16.71;72.26;101156.31;20949842;28;20040;-63
2022/10/10 13:30:55;;;;;;;;;;;;;;;16.62;71.97;101164.97;20945835;28;20099;-62
2022/10/10 13:41:17;;;;;;;;;;;;;;;16.38;74.19;101173.25;20949329;28;19968;-64
2022/10/10 13:51:43;;;;;;;;;;;;;;;16.36;73.82;101188.31;20952522;28;19986;-64
2022/10/10 14:02:10;;;;;;;;;;;;;;;16.38;73.37;101194.31;20964422;28;19924;-64
2022/10/10 14:12:41;;;;;;;;;;;;;;;16.30;73.20;101205.44;21014275;28;19924;-64
2022/10/10 14:23:03;;;;;;;5.43;2.10;;;;;;;15.88;78.50;101232.56;20970063;28;19920;-65
2022/10/10 14:33:26;;;;;;;6.70;2.80;;;;;;;15.70;81.60;101233.22;20964135;28;20048;-65
2022/10/10 14:43:47;;;;;;;9.63;3.65;;;;;;;15.36;86.00;101242.06;20965948;28;20091;-65
2022/10/10 14:54:08;;;;;;;;;;;;;;;14.94;93.70;101257.59;20958254;28;20044;-64
2022/10/10 15:04:34;;;;;;;11.55;4.28;;;;;;;14.46;100.00;101271.75;20990908;28;19928;-65
2022/10/10 15:14:56;;;;;;;10.70;5.60;;;;;;;14.31;100.00;101272.03;20964187;28;20041;-64
2022/10/10 15:25:17;;;;;;;11.10;5.68;;;;;;;14.00;100.00;101298.75;20967096;28;20044;-63
2022/10/10 15:35:38;;;;;;;;;;;;;;;13.75;100.00;101307.47;20956442;28;20095;-64
2022/10/10 15:46:25;;;;;;;12.87;7.43;;;;;;;13.64;100.00;101343.25;20942333;28;19920;-63
2022/10/10 15:56:46;;;;;;;8.95;5.88;;;;;;;13.54;100.00;101386.72;20956283;28;20299;-62
2022/10/10 16:07:08;;;;;;;5.15;2.90;;;;;;;13.41;100.00;101398.97;20954063;28;20602;-61
2022/10/10 16:17:48;;;;;;;9.30;1.80;;;;;;;13.13;100.00;101430.53;20949312;28;20562;-63
2022/10/10 16:28:10;;;;;;;5.18;1.50;;;;;;;13.12;100.00;101446.38;20950388;28;20048;-63
2022/10/10 16:38:31;;;;;;;5.72;1.55;;;;;;;13.04;100.00;101473.03;20955803;28;20136;-63
2022/10/10 16:48:57;;;;;;;5.43;1.73;;;;;;;12.89;100.00;101483.59;20948462;28;20048;-62
2022/10/10 16:59:18;;;;;;;5.70;1.60;;;;;;;12.66;100.00;101503.34;20952341;28;20107;-63
2022/10/10 17:09:40;;;;;;;7.88;1.40;;;;;;;12.57;100.00;101529.25;20950528;28;20044;-62
2022/10/10 17:20:01;;;;;;;7.00;1.45;;;;;;;12.30;100.00;101545.78;20955801;28;20069;-62
2022/10/10 17:30:23;;;;;;;;;;;;;;;12.19;100.00;101566.50;20944437;28;20059;-63
2022/10/10 17:40:55;;;;;;;8.57;2.00;;;;;;;12.11;100.00;101576.53;20933344;28;20662;-62
2022/10/10 17:51:22;;;;;;;6.10;1.73;;;;;;;12.01;100.00;101591.09;20895516;28;1078209;-62
2022/10/10 18:01:46;;;;;;;8.23;1.75;;;;;;;11.94;100.00;101616.75;20952480;28;20385;-62
2022/10/10 18:12:08;;;;;;;15.63;3.00;;;;;;;11.83;100.00;101645.25;20940045;28;20045;-62
2022/10/10 18:22:29;;;;;;;11.50;3.70;;;;;;;11.77;100.00;101660.44;20932068;28;20048;-62
2022/10/10 18:32:51;;;;;;;10.30;3.15;;;;;;;11.60;100.00;101668.38;20935256;28;20048;-61
2022/10/10 18:43:12;;;;;;;17.45;3.42;;;;;;;11.51;100.00;101685.34;20939327;28;20109;-62
2022/10/10 18:53:36;;;;;;;9.18;2.65;;;;;;;11.42;100.00;101705.88;20950017;28;20045;-62
2022/10/10 19:03:58;;;;;;;14.15;2.80;;;;;;;11.35;100.00;101715.00;20957133;28;20048;-62
2022/10/10 19:14:19;;;;;;;12.93;2.80;;;;;;;11.37;100.00;101723.56;20942079;28;20044;-63
2022/10/10 19:24:41;;;;;;;;;;;;;;;11.17;100.00;101736.84;20948322;28;20045;-63
2022/10/10 19:35:03;;;;;;;17.97;3.07;;;;;;;11.12;100.00;101751.88;20930995;28;20053;-62
2022/10/10 19:45:24;;;;;;;13.45;2.65;;;;;;;11.21;100.00;101761.81;20945016;28;20041;-62
2022/10/10 19:55:57;;;;;;;14.38;2.80;;;;;;;10.86;100.00;101768.03;20931779;28;20717;-62
2022/10/10 20:06:20;;;;;;;15.35;2.60;;;;;;;10.85;100.00;101782.00;20936223;28;20073;-62
2022/10/10 20:16:41;;;;;;;15.88;3.05;;;;;;;10.70;100.00;101806.22;20930833;28;20709;-63
2022/10/10 20:27:03;;;;;;;18.57;2.90;;;;;;;10.51;100.00;101816.78;20927258;28;20537;-62
2022/10/10 20:37:24;;;;;;;18.65;3.17;;;;;;;10.63;100.00;101836.13;20928417;28;20040;-62
2022/10/10 20:47:46;;;;;;;11.60;2.17;;;;;;;10.57;100.00;101849.47;20929974;28;20056;-62
2022/10/10 20:58:08;;;;;;;19.08;2.90;;;;;;;10.46;100.00;101855.28;20935501;28;20435;-62
2022/10/10 21:08:30;;;;;;;16.73;2.27;;;;;;;10.27;100.00;101870.09;20941199;28;20460;-62
2022/10/10 21:18:52;;;;;;;10.10;2.60;;;;;;;10.26;100.00;101878.81;20946516;28;20048;-62
2022/10/10 21:29:18;;;;;;;8.30;2.13;;;;;;;9.94;100.00;101902.84;20938968;28;20068;-62
2022/10/10 21:39:40;;;;;;;12.13;2.13;;;;;;;10.02;100.00;101913.81;20935116;28;20044;-62
2022/10/10 21:50:01;;;;;;;13.27;2.40;;;;;;;9.87;100.00;101927.47;20935168;28;20094;-62
2022/10/10 22:00:23;;;;;;;15.00;2.50;;;;;;;9.73;100.00;101932.44;20941359;28;20045;-62
2022/10/10 22:10:45;;;;;;;9.98;2.03;;;;;;;9.71;100.00;101942.91;20938775;28;20044;-62
2022/10/10 22:21:09;;;;;;;13.07;2.20;;;;;;;9.62;100.00;101958.06;20952150;28;20653;-62
2022/10/10 22:31:34;;;;;;;13.35;2.13;;;;;;;9.47;100.00;101969.13;20976202;28;20048;-62
2022/10/10 22:41:55;;;;;;;15.57;2.10;;;;;;;9.31;100.00;101973.31;20976145;28;20045;-62
2022/10/10 22:52:17;;;;;;;10.47;1.70;;;;;;;9.15;100.00;101990.44;20975320;28;20044;-62
2022/10/10 23:02:38;;;;;;;15.83;2.20;;;;;;;9.31;100.00;101996.72;20972757;28;20056;-62
2022/10/10 23:13:00;;;;;;;15.13;2.20;;;;;;;9.27;100.00;101997.75;20980155;28;20037;-61
2022/10/10 23:23:21;;;;;;;13.00;2.37;;;;;;;9.34;100.00;102006.16;20984780;28;20044;-62
2022/10/10 23:33:43;;;;;;;15.05;2.33;;;;;;;8.98;100.00;102005.88;21018237;28;20112;-62
2022/10/10 23:44:04;;;;;;;8.40;1.30;;;;;;;9.28;100.00;102016.78;20988505;28;20090;-62
2022/10/10 23:54:26;;;;;;;11.97;2.37;;;;;;;9.15;100.00;102013.84;20975606;28;20056;-62
